Time;durP1;ratioP1;P1;durP2;ratioP2;P2;SDS_P1;SDS_P2;PMS_P1;PMS_P2;Temp;Humidity;BMP_temperature;BMP_pressure;BME280_temperature;BME280_humidity;BME280_pressure;Samples;Min_cycle;Max_cycle;Signal;HPM_P1;HPM_P2
2023/06/16 00:00:38;;;;;;;;;;;20.10;74.50;;;;;;6089497;23;20311;-81
2023/06/16 00:03:05;;;;;;;;;;;20.10;73.00;;;;;;6066240;23;19924;-81
2023/06/16 00:05:34;;;;;;;;;;;20.20;73.10;;;;;;6065340;23;19921;-80
2023/06/16 00:08:03;;;;;;;;;;;20.30;70.00;;;;;;6066458;23;19969;-81
2023/06/16 00:10:30;;;;;;;;;;;20.40;70.40;;;;;;6089623;23;19946;-80
2023/06/16 00:12:57;;;;;;;;;;;20.50;68.80;;;;;;6066704;23;19921;-81
2023/06/16 00:15:24;;;;;;;;;;;20.60;68.60;;;;;;6065392;23;19924;-81
2023/06/16 00:17:51;;;;;;;;;;;20.60;67.70;;;;;;6067077;23;19917;-81
2023/06/16 00:20:22;;;;;;;;;;;20.60;68.50;;;;;;6066251;23;19929;-80
2023/06/16 00:22:48;;;;;;;;;;;20.60;66.70;;;;;;6066667;23;19973;-81
2023/06/16 00:25:16;;;;;;;;;;;20.60;67.40;;;;;;6066153;23;19972;-81
2023/06/16 00:27:43;;;;;;;;;;;20.60;67.50;;;;;;6089845;23;19922;-81
2023/06/16 00:30:10;;;;;;;;;;;20.60;67.70;;;;;;6066518;23;19921;-82
2023/06/16 00:32:37;;;;;;;;;;;20.60;67.90;;;;;;6066001;23;20312;-81
2023/06/16 00:35:04;;;;;;;;;;;20.50;68.10;;;;;;6066201;23;19918;-80
2023/06/16 00:37:31;;;;;;;;;;;20.50;68.10;;;;;;6065468;23;19917;-80
2023/06/16 00:39:58;;;;;;;;;;;20.50;69.20;;;;;;6089728;23;19982;-81
2023/06/16 00:42:25;;;;;;;;;;;20.40;70.00;;;;;;6066624;23;19965;-82
2023/06/16 00:44:52;;;;;;;;;;;20.30;70.00;;;;;;6065780;23;20352;-81
2023/06/16 00:47:19;;;;;;;;;;;20.30;69.80;;;;;;6066172;23;19918;-80
2023/06/16 00:49:46;;;;;;;;;;;20.30;70.70;;;;;;6065160;23;19917;-82
2023/06/16 00:52:13;;;;;;;;;;;20.20;70.60;;;;;;6067070;23;19973;-80
2023/06/16 00:54:40;;;;;;;;;;;20.20;70.90;;;;;;6065331;23;19917;-80
2023/06/16 00:57:06;;;;;;;;;;;20.10;70.80;;;;;;6066009;23;19924;-80
2023/06/16 00:59:33;;;;;;;;;;;20.00;70.70;;;;;;6064939;23;19929;-79
2023/06/16 04:23:42;;;;;;;0.00;0.00;;;19.10;55.60;;;;;;6095720;23;20368;-84
2023/06/16 04:26:09;;;;;;;0.00;0.00;;;19.10;54.70;;;;;;6094828;23;20033;-84
2023/06/16 04:28:42;;;;;;;;;;;19.10;55.50;;;;;;6094905;23;20030;-85
2023/06/16 04:31:11;;;;;;;;;;;19.10;55.50;;;;;;6094685;23;19917;-86
2023/06/16 04:33:41;;;;;;;;;;;19.00;55.10;;;;;;6095244;23;19966;-84
2023/06/16 04:36:08;;;;;;;;;;;19.00;55.40;;;;;;6094018;23;19927;-84
2023/06/16 04:38:35;;;;;;;;;;;19.00;55.40;;;;;;6094428;23;20259;-84
2023/06/16 04:41:02;;;;;;;;;;;19.00;54.80;;;;;;6094538;23;19999;-85
2023/06/16 04:43:29;;;;;;;;;;;19.10;54.60;;;;;;6095116;23;20329;-84
2023/06/16 04:45:57;;;;;;;;;;;19.10;53.40;;;;;;6094156;23;19921;-83
2023/06/16 04:48:25;;;;;;;;;;;19.20;54.70;;;;;;6094385;23;19924;-83
2023/06/16 04:50:53;;;;;;;;;;;19.20;55.30;;;;;;6094422;23;20236;-84
2023/06/16 04:53:20;;;;;;;;;;;19.10;55.80;;;;;;6094833;23;20228;-84
2023/06/16 04:55:47;;;;;;;;;;;19.10;55.90;;;;;;6094349;23;20258;-84
2023/06/16 04:58:14;;;;;;;;;;;19.10;56.50;;;;;;6094324;23;19988;-83
2023/06/16 05:00:40;;;;;;;;;;;19.00;55.60;;;;;;6089895;23;19925;-84
2023/06/16 05:03:07;;;;;;;;;;;19.10;55.60;;;;;;6064885;23;19925;-84
2023/06/16 05:05:34;;;;;;;;;;;19.10;56.10;;;;;;6066191;23;19921;-83
2023/06/16 05:08:01;;;;;;;;;;;19.10;56.40;;;;;;6064376;23;19917;-84
2023/06/16 05:10:28;;;;;;;;;;;19.10;56.50;;;;;;6066156;23;19937;-84
2023/06/16 05:12:57;;;;;;;;;;;19.10;55.80;;;;;;6065650;23;19918;-85
2023/06/16 05:15:24;;;;;;;;;;;19.20;56.10;;;;;;6065918;23;19918;-84
2023/06/16 05:17:51;;;;;;;;;;;19.20;55.60;;;;;;6065345;23;19941;-84
2023/06/16 05:20:18;;;;;;;;;;;19.30;54.60;;;;;;6065286;23;19997;-84
2023/06/16 05:22:45;;;;;;;;;;;19.30;55.30;;;;;;6065626;23;19997;-84
2023/06/16 05:25:12;;;;;;;;;;;19.30;55.00;;;;;;6065035;23;19917;-83
2023/06/16 05:27:39;;;;;;;;;;;19.40;54.90;;;;;;6067212;23;19918;-83
2023/06/16 05:30:06;;;;;;;;;;;19.40;54.60;;;;;;6064553;23;19975;-84
2023/06/16 05:32:33;;;;;;;;;;;19.40;54.30;;;;;;6065966;23;19921;-84
2023/06/16 05:35:00;;;;;;;;;;;19.40;55.70;;;;;;6065627;23;19945;-83
2023/06/16 05:37:28;;;;;;;;;;;19.40;55.20;;;;;;6065536;23;20383;-83
2023/06/16 05:39:55;;;;;;;;;;;19.40;55.80;;;;;;6065074;23;20296;-83
2023/06/16 05:42:22;;;;;;;;;;;19.40;55.60;;;;;;6065469;23;19921;-83
2023/06/16 05:44:49;;;;;;;;;;;19.60;54.20;;;;;;6065812;23;20344;-83
2023/06/16 05:47:16;;;;;;;;;;;19.60;53.40;;;;;;6064346;23;19924;-83
2023/06/16 05:49:42;;;;;;;;;;;19.60;54.50;;;;;;6065293;23;20288;-83
2023/06/16 05:52:09;;;;;;;;;;;19.70;54.40;;;;;;6065021;23;19918;-82
2023/06/16 05:54:36;;;;;;;;;;;19.70;54.10;;;;;;6065236;23;19917;-83
2023/06/16 05:57:03;;;;;;;;;;;19.70;54.30;;;;;;6088119;23;20114;-83
2023/06/16 05:59:30;;;;;;;;;;;19.70;55.20;;;;;;6064990;23;19924;-83
2023/06/16 06:01:57;;;;;;;;;;;19.80;54.00;;;;;;6064550;23;19925;-82
2023/06/16 06:04:28;;;;;;;;;;;19.80;54.20;;;;;;6065586;23;20252;-84
2023/06/16 06:06:55;;;;;;;;;;;19.90;54.70;;;;;;6064093;23;19917;-83
2023/06/16 06:09:22;;;;;;;;;;;19.90;56.40;;;;;;6065460;23;20360;-84
2023/06/16 06:11:49;;;;;;;;;;;20.00;54.10;;;;;;6066505;23;19921;-83
2023/06/16 06:14:16;;;;;;;;;;;20.00;54.30;;;;;;6064534;23;19917;-84
2023/06/16 06:16:43;;;;;;;;;;;20.00;54.20;;;;;;6065644;23;19973;-82
2023/06/16 06:19:10;;;;;;;;;;;20.10;53.90;;;;;;6064633;23;20273;-83
2023/06/16 06:21:38;;;;;;;;;;;20.20;53.00;;;;;;6065076;23;20263;-83
2023/06/16 06:24:06;;;;;;;;;;;20.30;53.40;;;;;;6064945;23;20400;-83
2023/06/16 06:26:33;;;;;;;;;;;20.40;53.60;;;;;;6088629;23;19921;-83
2023/06/16 06:29:00;;;;;;;;;;;20.40;53.00;;;;;;6055622;23;19921;-85
2023/06/16 06:31:26;;;;;;;;;;;20.50;52.90;;;;;;6062966;23;19917;-84
2023/06/16 06:33:53;;;;;;;;;;;20.50;52.30;;;;;;6063993;23;19982;-86
2023/06/16 06:36:27;;;;;;;;;;;20.60;53.80;;;;;;6063262;23;19921;-85
2023/06/16 06:38:54;;;;;;;;;;;20.60;54.60;;;;;;6062686;23;19944;-86
2023/06/16 06:41:21;;;;;;;;;;;20.70;52.80;;;;;;6066046;23;19917;-85
2023/06/16 06:43:51;;;;;;;;;;;20.80;52.60;;;;;;6067947;23;19917;-85
2023/06/16 06:46:18;;;;;;;;;;;20.90;53.60;;;;;;6065347;23;19928;-86
2023/06/16 06:48:45;;;;;;;;;;;20.90;54.60;;;;;;6067448;23;19917;-86
2023/06/16 06:51:13;;;;;;;;;;;21.00;55.80;;;;;;6065756;23;19918;-86
2023/06/16 06:53:40;;;;;;;;;;;21.20;56.20;;;;;;6090977;23;19925;-85
2023/06/16 06:56:07;;;;;;;;;;;21.30;52.00;;;;;;6066479;23;20366;-85
2023/06/16 06:58:33;;;;;;;;;;;21.30;53.70;;;;;;6067147;23;19921;-85
2023/06/16 07:01:00;;;;;;;;;;;21.40;55.00;;;;;;6064939;23;19972;-85
2023/06/16 07:03:27;;;;;;;;;;;21.50;52.90;;;;;;6067440;23;19917;-85
2023/06/16 07:05:54;;;;;;;;;;;21.60;52.80;;;;;;6066021;23;19918;-85
2023/06/16 07:08:21;;;;;;;;;;;21.70;53.70;;;;;;6066698;23;20324;-85
2023/06/16 07:10:48;;;;;;;;;;;21.80;55.30;;;;;;6066036;23;19921;-85
2023/06/16 07:13:15;;;;;;;;;;;21.90;57.20;;;;;;6067243;23;19917;-85
2023/06/16 07:15:42;;;;;;;;;;;22.10;62.00;;;;;;6090503;23;19968;-85
2023/06/16 07:18:08;;;;;;;;;;;22.30;63.50;;;;;;6066361;23;19973;-85
2023/06/16 07:20:35;;;;;;;;;;;22.50;64.60;;;;;;6066302;23;19918;-85
2023/06/16 07:23:02;;;;;;;0.00;0.00;;;22.60;62.50;;;;;;6065007;23;19925;-86
2023/06/16 07:25:32;;;;;;;0.00;0.00;;;22.80;62.60;;;;;;6090216;23;20030;-85
2023/06/16 07:27:59;;;;;;;0.00;0.00;;;22.90;61.90;;;;;;6087834;23;20365;-84
2023/06/16 07:30:26;;;;;;;0.00;0.00;;;23.00;61.50;;;;;;6089102;23;20319;-85
2023/06/16 07:32:54;;;;;;;0.00;0.00;;;23.10;61.30;;;;;;6090442;23;20413;-85
2023/06/16 07:35:22;;;;;;;0.00;0.00;;;23.20;60.70;;;;;;6089172;23;20019;-85
2023/06/16 07:37:49;;;;;;;0.00;0.00;;;23.30;61.90;;;;;;6067774;23;20038;-85
2023/06/16 07:40:16;;;;;;;0.00;0.00;;;23.40;59.90;;;;;;6089014;23;20335;-84
2023/06/16 07:42:46;;;;;;;;;;;23.50;60.20;;;;;;6090260;23;20026;-85
2023/06/16 07:45:13;;;;;;;;;;;23.60;60.80;;;;;;6067388;23;19922;-85
2023/06/16 07:47:41;;;;;;;0.00;0.00;;;23.70;60.00;;;;;;6066160;23;19918;-85
2023/06/16 07:50:10;;;;;;;0.00;0.00;;;23.80;59.70;;;;;;6087969;23;20375;-84
2023/06/16 07:52:38;;;;;;;0.00;0.00;;;24.10;58.90;;;;;;6088699;23;20379;-85
2023/06/16 07:55:06;;;;;;;0.00;0.00;;;24.20;59.70;;;;;;6087341;23;20386;-85
2023/06/16 07:57:33;;;;;;;0.00;0.00;;;24.40;58.90;;;;;;6066610;23;20390;-85
2023/06/16 08:00:00;;;;;;;0.00;0.00;;;24.40;57.60;;;;;;6088268;23;20379;-86
2023/06/16 08:02:27;;;;;;;0.00;0.00;;;24.40;57.30;;;;;;6087998;23;20735;-83
2023/06/16 08:04:54;;;;;;;0.00;0.00;;;24.50;58.90;;;;;;6088860;23;20430;-85
2023/06/16 08:07:21;;;;;;;0.00;0.00;;;24.60;59.20;;;;;;6088488;23;20357;-86
2023/06/16 08:09:48;;;;;;;0.00;0.00;;;24.60;58.90;;;;;;6089358;23;20023;-86
2023/06/16 08:12:15;;;;;;;0.00;0.00;;;24.70;58.20;;;;;;6088670;23;20383;-86
2023/06/16 08:14:42;;;;;;;0.00;0.00;;;24.80;59.00;;;;;;6089245;23;20023;-85
2023/06/16 08:17:08;;;;;;;0.00;0.00;;;24.90;58.00;;;;;;6088543;23;20022;-86
2023/06/16 08:19:35;;;;;;;0.00;0.00;;;25.00;57.40;;;;;;6089280;23;20019;-85
2023/06/16 08:22:03;;;;;;;0.00;0.00;;;25.10;58.70;;;;;;6094399;23;20022;-86
2023/06/16 08:24:30;;;;;;;0.00;0.00;;;25.30;59.00;;;;;;6093425;23;20026;-85
2023/06/16 08:26:58;;;;;;;0.00;0.00;;;25.40;57.60;;;;;;6093659;23;20380;-85
2023/06/16 08:29:25;;;;;;;0.00;0.00;;;25.60;59.80;;;;;;6092099;23;20469;-85
2023/06/16 08:31:52;;;;;;;0.00;0.00;;;25.80;58.50;;;;;;6093231;23;20384;-85
2023/06/16 08:34:19;;;;;;;0.00;0.00;;;25.90;58.10;;;;;;6092444;23;20404;-87
2023/06/16 08:36:46;;;;;;;0.00;0.00;;;25.90;57.00;;;;;;6092966;23;20382;-85
2023/06/16 08:39:13;;;;;;;0.00;0.00;;;25.90;57.70;;;;;;6092261;23;20381;-85
2023/06/16 08:41:41;;;;;;;0.00;0.00;;;25.90;57.10;;;;;;6092561;23;20707;-85
2023/06/16 08:44:09;;;;;;;0.00;0.00;;;26.00;57.10;;;;;;6092363;23;20867;-85
2023/06/16 08:46:38;;;;;;;0.00;0.00;;;26.20;57.20;;;;;;6092953;23;20460;-85
2023/06/16 08:49:05;;;;;;;0.00;0.00;;;26.40;56.30;;;;;;6093116;23;20377;-84
2023/06/16 08:51:34;;;;;;;0.00;0.00;;;26.40;56.10;;;;;;6091908;23;20385;-86
2023/06/16 08:54:05;;;;;;;0.00;0.00;;;26.40;55.80;;;;;;6068595;23;20377;-85
2023/06/16 08:56:33;;;;;;;0.00;0.00;;;26.40;56.40;;;;;;6092390;23;20391;-86
2023/06/16 08:59:01;;;;;;;0.00;0.00;;;26.50;55.70;;;;;;6094049;23;20032;-84
2023/06/16 09:01:29;;;;;;;0.00;0.00;;;26.50;56.50;;;;;;6069246;23;20034;-86
2023/06/16 09:03:56;;;;;;;0.00;0.00;;;26.40;55.60;;;;;;6093849;23;20030;-85
2023/06/16 09:06:25;;;;;;;0.00;0.00;;;26.50;56.70;;;;;;6092858;23;20371;-84
2023/06/16 09:08:54;;;;;;;0.00;0.00;;;26.70;56.30;;;;;;6093411;23;20034;-85
2023/06/16 09:11:23;;;;;;;0.00;0.00;;;26.80;55.50;;;;;;6093694;23;20361;-85
2023/06/16 09:13:55;;;;;;;0.00;0.00;;;26.80;55.90;;;;;;6093846;23;20026;-84
2023/06/16 09:16:24;;;;;;;0.00;0.00;;;26.80;56.40;;;;;;6093101;23;20026;-85
2023/06/16 09:18:51;;;;;;;0.00;0.00;;;27.00;56.70;;;;;;6095223;23;20026;-85
2023/06/16 09:21:20;;;;;;;0.00;0.00;;;27.00;54.90;;;;;;6093117;23;20034;-85
2023/06/16 09:23:58;;;;;;;0.00;0.00;;;27.00;55.40;;;;;;6093647;23;20081;-85
2023/06/16 09:26:30;;;;;;;0.00;0.00;;;26.90;54.10;;;;;;6093425;23;20026;-84
2023/06/16 09:28:57;;;;;;;0.00;0.00;;;26.80;54.70;;;;;;6094080;23;20054;-85
2023/06/16 09:31:27;;;;;;;0.00;0.00;;;26.90;56.40;;;;;;6092787;23;20026;-84
2023/06/16 09:34:04;;;;;;;0.00;0.00;;;27.00;54.80;;;;;;6093977;23;20113;-85
2023/06/16 09:36:32;;;;;;;0.00;0.00;;;27.00;55.00;;;;;;6092522;23;20114;-84
2023/06/16 09:38:59;;;;;;;0.00;0.00;;;27.00;55.80;;;;;;6093444;23;20026;-84
2023/06/16 09:41:26;;;;;;;0.00;0.00;;;26.90;54.40;;;;;;6092854;23;20037;-84
2023/06/16 09:43:53;;;;;;;0.00;0.00;;;27.00;54.90;;;;;;6093653;23;20026;-84
2023/06/16 09:46:19;;;;;;;0.00;0.00;;;27.10;54.60;;;;;;6092841;23;20049;-84
2023/06/16 09:48:50;;;;;;;0.00;0.00;;;27.00;54.50;;;;;;6093748;23;20053;-84
2023/06/16 09:51:23;;;;;;;0.00;0.00;;;27.20;55.90;;;;;;6092035;23;20026;-83
2023/06/16 09:53:53;;;;;;;0.00;0.00;;;27.20;55.20;;;;;;6094877;23;20120;-83
2023/06/16 09:56:20;;;;;;;0.00;0.00;;;27.30;55.20;;;;;;6091902;23;20022;-83
2023/06/16 09:58:47;;;;;;;0.00;0.00;;;27.50;53.70;;;;;;6092989;23;20030;-83
2023/06/16 10:01:15;;;;;;;0.00;0.00;;;27.60;52.80;;;;;;6093734;23;20022;-83
2023/06/16 10:03:47;;;;;;;0.00;0.00;;;27.70;53.40;;;;;;6093291;23;20026;-85
2023/06/16 10:06:20;;;;;;;0.00;0.00;;;27.80;53.10;;;;;;6092566;23;20026;-83
2023/06/16 10:08:52;;;;;;;0.00;0.00;;;27.90;53.00;;;;;;6093877;23;20040;-83
2023/06/16 10:11:19;;;;;;;0.00;0.00;;;28.20;52.90;;;;;;6093825;23;20026;-83
2023/06/16 10:13:51;;;;;;;0.00;0.00;;;28.40;52.20;;;;;;6093883;23;20254;-85
2023/06/16 10:16:23;;;;;;;0.00;0.00;;;28.30;49.60;;;;;;6092895;23;20030;-83
2023/06/16 10:18:53;;;;;;;0.00;0.00;;;27.90;50.10;;;;;;6093327;23;20022;-84
2023/06/16 10:21:23;;;;;;;0.00;0.00;;;27.90;51.60;;;;;;6092879;23;20022;-84
2023/06/16 10:23:51;;;;;;;0.00;0.00;;;28.00;51.60;;;;;;6093801;23;20057;-84
2023/06/16 10:26:19;;;;;;;0.00;0.00;;;28.20;50.10;;;;;;6092245;23;20106;-84
2023/06/16 10:28:46;;;;;;;0.00;0.00;;;28.50;51.50;;;;;;6091668;23;20046;-84
2023/06/16 10:31:14;;;;;;;0.00;0.00;;;28.70;49.80;;;;;;6093168;23;20084;-84
2023/06/16 10:33:59;;;;;;;0.00;0.00;;;28.80;47.60;;;;;;6068296;23;20018;-84
2023/06/16 10:36:33;;;;;;;0.00;0.00;;;28.70;47.50;;;;;;6091769;23;20026;-84
2023/06/16 10:39:12;;;;;;;0.00;0.00;;;28.60;48.60;;;;;;6092790;23;20026;-83
2023/06/16 10:41:56;;;;;;;0.00;0.00;;;28.50;47.90;;;;;;6092630;23;20417;-84
2023/06/16 10:44:30;;;;;;;0.00;0.00;;;28.40;48.60;;;;;;6092264;23;20193;-83
2023/06/16 10:47:09;;;;;;;0.00;0.00;;;28.60;47.10;;;;;;6092458;23;20026;-83
2023/06/16 10:49:57;;;;;;;0.00;0.00;;;28.70;46.50;;;;;;6068571;23;20037;-84
2023/06/16 10:52:31;;;;;;;0.00;0.00;;;28.80;47.00;;;;;;6093492;23;20031;-84
2023/06/16 10:55:15;;;;;;;0.00;0.00;;;28.90;47.40;;;;;;6093258;23;20128;-84
2023/06/16 10:57:43;;;;;;;0.00;0.00;;;29.10;45.20;;;;;;6092014;23;20030;-85
2023/06/16 11:00:14;;;;;;;0.00;0.00;;;29.10;46.20;;;;;;6094095;23;20025;-83
2023/06/16 11:02:52;;;;;;;0.00;0.00;;;29.20;46.40;;;;;;6092653;23;20030;-85
2023/06/16 11:05:23;;;;;;;0.00;0.00;;;29.40;43.70;;;;;;6068562;23;20036;-84
2023/06/16 11:08:05;;;;;;;0.00;0.00;;;29.40;45.80;;;;;;6093264;23;20030;-84
2023/06/16 11:10:50;;;;;;;0.00;0.00;;;29.60;46.10;;;;;;6068563;23;20026;-84
2023/06/16 11:13:39;;;;;;;0.00;0.00;;;29.60;45.00;;;;;;6069148;23;20022;-85
2023/06/16 11:16:07;;;;;;;0.00;0.00;;;29.50;43.70;;;;;;6092740;23;20041;-85
2023/06/16 11:18:35;;;;;;;0.00;0.00;;;29.50;43.50;;;;;;6093519;23;20034;-84
2023/06/16 11:21:06;;;;;;;0.00;0.00;;;29.60;45.30;;;;;;6091767;23;20034;-83
2023/06/16 11:23:37;;;;;;;0.00;0.00;;;29.70;45.00;;;;;;6093154;23;20036;-84
2023/06/16 11:26:12;;;;;;;0.00;0.00;;;29.60;46.20;;;;;;6092155;23;20030;-84
2023/06/16 11:28:41;;;;;;;0.00;0.00;;;29.60;45.20;;;;;;6094318;23;20029;-84
2023/06/16 11:31:10;;;;;;;0.00;0.00;;;29.70;45.80;;;;;;6094433;23;20026;-84
2023/06/16 11:33:38;;;;;;;0.00;0.00;;;29.90;44.70;;;;;;6094959;23;20077;-84
2023/06/16 11:36:35;;;;;;;;;;;30.10;44.60;;;;;;6094775;23;20019;-84
2023/06/16 11:39:04;;;;;;;;;;;30.20;44.20;;;;;;6069014;23;19941;-84
2023/06/16 11:41:31;;;;;;;;;;;30.20;44.20;;;;;;6071484;23;19973;-83
2023/06/16 11:43:58;;;;;;;;;;;30.30;43.90;;;;;;6068779;23;20245;-84
2023/06/16 11:46:26;;;;;;;;;;;30.40;44.40;;;;;;6071761;23;20320;-84
2023/06/16 11:48:53;;;;;;;;;;;30.30;44.20;;;;;;6070467;23;20333;-84
2023/06/16 11:51:21;;;;;;;;;;;30.30;44.50;;;;;;6096619;23;19917;-84
2023/06/16 11:53:48;;;;;;;;;;;30.40;43.20;;;;;;6070423;23;19917;-83
2023/06/16 11:56:15;;;;;;;;;;;30.60;43.80;;;;;;6071216;23;20243;-84
2023/06/16 11:58:44;;;;;;;;;;;30.70;42.40;;;;;;6071608;23;19917;-84
2023/06/16 12:01:14;;;;;;;;;;;30.60;43.00;;;;;;6070002;23;19921;-83
2023/06/16 12:03:43;;;;;;;;;;;30.70;42.50;;;;;;6071450;23;19917;-84
2023/06/16 12:06:30;;;;;;;;;;;30.60;41.00;;;;;;6074740;23;20998;-84
2023/06/16 12:08:57;;;;;;;;;;;30.40;39.40;;;;;;6071504;23;19968;-84
2023/06/16 12:11:29;;;;;;;0.00;0.00;;;30.20;39.90;;;;;;6070065;23;19936;-84
2023/06/16 12:13:56;;;;;;;0.00;0.00;;;30.40;42.20;;;;;;6094678;23;20405;-84
2023/06/16 12:16:26;;;;;;;0.00;0.00;;;30.50;43.70;;;;;;6094290;23;20309;-84
2023/06/16 12:18:55;;;;;;;0.00;0.00;;;30.70;41.00;;;;;;6095546;23;20109;-84
2023/06/16 12:21:24;;;;;;;0.00;0.00;;;30.90;41.30;;;;;;6092585;23;20401;-84
2023/06/16 12:23:54;;;;;;;0.00;0.00;;;31.10;40.80;;;;;;6093642;23;20038;-85
2023/06/16 12:26:40;;;;;;;0.00;0.00;;;31.10;40.90;;;;;;6093883;23;20023;-84
2023/06/16 12:29:15;;;;;;;0.00;0.00;;;31.10;40.10;;;;;;6091906;23;20424;-83
2023/06/16 12:31:53;;;;;;;0.00;0.00;;;31.10;40.80;;;;;;6092803;23;20389;-84
2023/06/16 12:34:25;;;;;;;0.00;0.00;;;31.30;40.40;;;;;;6091669;23;20689;-84
2023/06/16 12:36:53;;;;;;;0.00;0.00;;;31.50;39.50;;;;;;6092764;23;20393;-83
2023/06/16 12:39:21;;;;;;;0.00;0.00;;;31.50;38.60;;;;;;6067784;23;20377;-84
2023/06/16 12:42:13;;;;;;;0.00;0.00;;;31.40;37.90;;;;;;6093865;23;20381;-84
2023/06/16 12:44:48;;;;;;;0.00;0.00;;;31.20;40.30;;;;;;6094040;23;20405;-84
2023/06/16 12:47:17;;;;;;;0.00;0.00;;;31.10;38.90;;;;;;6094097;23;20023;-84
2023/06/16 12:49:44;;;;;;;0.00;0.00;;;30.90;38.20;;;;;;6093512;23;20034;-84
2023/06/16 12:52:14;;;;;;;0.00;0.00;;;30.90;38.70;;;;;;6094506;23;20058;-83
2023/06/16 12:54:41;;;;;;;0.00;0.00;;;30.90;39.40;;;;;;6093501;23;20022;-84
2023/06/16 12:57:08;;;;;;;0.00;0.00;;;30.90;39.60;;;;;;6094222;23;20031;-84
2023/06/16 12:59:37;;;;;;;0.00;0.00;;;30.80;39.80;;;;;;6093145;23;20077;-83
2023/06/16 13:02:05;;;;;;;0.00;0.00;;;31.00;39.70;;;;;;6070516;23;20439;-84
2023/06/16 13:04:32;;;;;;;0.00;0.00;;;31.20;39.20;;;;;;6092042;23;20381;-83
2023/06/16 13:07:00;;;;;;;0.00;0.00;;;31.40;37.70;;;;;;6093211;23;20384;-84
2023/06/16 13:09:27;;;;;;;0.00;0.00;;;31.70;37.70;;;;;;6091600;23;20389;-84
2023/06/16 13:11:56;;;;;;;0.00;0.00;;;31.80;38.20;;;;;;6094288;23;20597;-84
2023/06/16 13:14:24;;;;;;;0.00;0.00;;;31.80;37.50;;;;;;6093053;23;20082;-83
2023/06/16 13:16:51;;;;;;;0.00;0.00;;;31.90;38.50;;;;;;6093867;23;20026;-84
2023/06/16 13:19:18;;;;;;;0.00;0.00;;;31.80;36.80;;;;;;6094348;23;20029;-84
2023/06/16 13:21:45;;;;;;;0.00;0.00;;;31.70;35.30;;;;;;6092773;23;20028;-83
2023/06/16 13:24:13;;;;;;;0.00;0.00;;;31.70;36.50;;;;;;6094210;23;20365;-84
2023/06/16 13:26:40;;;;;;;0.00;0.00;;;31.80;36.90;;;;;;6093205;23;20057;-83
2023/06/16 13:29:08;;;;;;;0.00;0.00;;;32.00;36.70;;;;;;6070560;23;20342;-84
2023/06/16 13:31:35;;;;;;;0.00;0.00;;;32.30;38.20;;;;;;6092843;23;20027;-83
2023/06/16 13:34:02;;;;;;;0.00;0.00;;;32.20;35.70;;;;;;6094308;23;20018;-84
2023/06/16 13:36:29;;;;;;;0.00;0.00;;;32.10;36.10;;;;;;6092961;23;20030;-83
2023/06/16 13:38:56;;;;;;;0.00;0.00;;;32.30;36.10;;;;;;6093795;23;20022;-83
2023/06/16 13:41:27;;;;;;;0.00;0.00;;;32.40;36.60;;;;;;6094424;23;20033;-83
2023/06/16 13:43:54;;;;;;;0.00;0.00;;;32.10;35.80;;;;;;6093287;23;20026;-83
2023/06/16 13:46:21;;;;;;;0.00;0.00;;;32.00;38.00;;;;;;6093583;23;20102;-83
2023/06/16 13:48:48;;;;;;;0.00;0.00;;;32.20;37.40;;;;;;6094698;23;20022;-83
2023/06/16 13:51:15;;;;;;;0.00;0.00;;;32.40;37.80;;;;;;6093849;23;20018;-84
2023/06/16 13:53:43;;;;;;;0.00;0.00;;;32.70;36.60;;;;;;6092732;23;20019;-84
2023/06/16 13:56:10;;;;;;;0.00;0.00;;;32.80;34.50;;;;;;6069718;23;20073;-85
2023/06/16 13:58:38;;;;;;;0.00;0.00;;;32.70;36.00;;;;;;6092518;23;20405;-83
2023/06/16 14:01:05;;;;;;;0.00;0.00;;;32.60;36.70;;;;;;6095395;23;20360;-83
2023/06/16 14:03:32;;;;;;;0.00;0.00;;;32.70;37.40;;;;;;6092768;23;20023;-82
2023/06/16 14:06:01;;;;;;;0.00;0.00;;;32.90;37.40;;;;;;6093623;23;20077;-83
2023/06/16 14:08:28;;;;;;;0.00;0.00;;;33.00;38.00;;;;;;6093059;23;20085;-83
2023/06/16 14:10:55;;;;;;;0.00;0.00;;;33.10;37.80;;;;;;6094698;23;20093;-85
2023/06/16 14:13:23;;;;;;;0.00;0.00;;;33.20;39.00;;;;;;6093971;23;20353;-84
2023/06/16 14:15:50;;;;;;;0.00;0.00;;;33.20;37.20;;;;;;6091472;23;20341;-84
2023/06/16 14:18:20;;;;;;;0.00;0.00;;;32.90;37.60;;;;;;6094942;23;20033;-83
2023/06/16 14:20:47;;;;;;;0.00;0.00;;;32.80;37.10;;;;;;6092452;23;20031;-84
2023/06/16 14:23:16;;;;;;;0.00;0.00;;;32.90;36.00;;;;;;6093654;23;20085;-84
2023/06/16 14:25:45;;;;;;;0.00;0.00;;;33.00;36.70;;;;;;6093702;23;20475;-84
2023/06/16 14:28:13;;;;;;;0.00;0.00;;;33.10;37.10;;;;;;6093605;23;20101;-84
2023/06/16 14:30:40;;;;;;;0.00;0.00;;;33.20;34.70;;;;;;6069521;23;20031;-84
2023/06/16 14:33:08;;;;;;;0.00;0.00;;;33.30;33.80;;;;;;6094152;23;20033;-84
2023/06/16 14:35:37;;;;;;;0.00;0.00;;;33.50;34.50;;;;;;6094599;23;20022;-85
2023/06/16 14:38:04;;;;;;;0.00;0.00;;;33.50;33.20;;;;;;6093950;23;20064;-84
2023/06/16 14:40:32;;;;;;;0.00;0.00;;;33.60;32.50;;;;;;6092295;23;20022;-84
2023/06/16 14:42:59;;;;;;;0.00;0.00;;;33.60;30.90;;;;;;6093953;23;20342;-84
2023/06/16 14:45:26;;;;;;;0.00;0.00;;;33.60;31.30;;;;;;6093568;23;20030;-84
2023/06/16 14:47:53;;;;;;;0.00;0.00;;;33.40;31.70;;;;;;6093863;23;20018;-85
2023/06/16 14:50:22;;;;;;;0.00;0.00;;;33.40;33.30;;;;;;6093578;23;20360;-84
2023/06/16 14:52:49;;;;;;;0.00;0.00;;;33.30;33.10;;;;;;6093004;23;20022;-84
2023/06/16 14:55:16;;;;;;;0.00;0.00;;;33.30;33.60;;;;;;6093961;23;20026;-83
2023/06/16 14:57:43;;;;;;;0.00;0.00;;;33.30;32.80;;;;;;6093307;23;20062;-84
2023/06/16 15:00:11;;;;;;;0.00;0.00;;;33.40;33.50;;;;;;6094270;23;20030;-84
2023/06/16 15:02:38;;;;;;;0.00;0.00;;;33.40;31.80;;;;;;6092332;23;20052;-84
2023/06/16 15:05:06;;;;;;;0.00;0.00;;;33.40;31.20;;;;;;6093482;23;20118;-84
2023/06/16 15:07:33;;;;;;;0.00;0.00;;;33.40;30.20;;;;;;6094378;23;20064;-83
2023/06/16 15:10:00;;;;;;;0.00;0.00;;;33.40;31.60;;;;;;6071640;23;20357;-84
2023/06/16 15:12:27;;;;;;;0.00;0.00;;;33.50;30.70;;;;;;6095259;23;20023;-84
2023/06/16 15:14:54;;;;;;;0.00;0.00;;;33.50;31.90;;;;;;6094527;23;20033;-84
2023/06/16 15:17:21;;;;;;;0.00;0.00;;;33.50;31.50;;;;;;6095172;23;20028;-84
2023/06/16 15:19:48;;;;;;;0.00;0.00;;;33.50;31.50;;;;;;6094554;23;20022;-86
2023/06/16 15:22:15;;;;;;;0.00;0.00;;;33.60;31.70;;;;;;6094802;23;20401;-85
2023/06/16 15:24:42;;;;;;;0.00;0.00;;;33.70;31.00;;;;;;6094716;23;20029;-85
2023/06/16 15:27:08;;;;;;;0.00;0.00;;;33.60;31.20;;;;;;6094781;23;20460;-86
2023/06/16 15:29:35;;;;;;;0.00;0.00;;;33.50;31.20;;;;;;6093942;23;20022;-85
2023/06/16 15:32:02;;;;;;;0.00;0.00;;;33.40;30.50;;;;;;6070621;23;20026;-84
2023/06/16 15:34:29;;;;;;;0.00;0.00;;;33.40;30.20;;;;;;6095350;23;20097;-85
2023/06/16 15:37:00;;;;;;;0.00;0.00;;;33.40;31.20;;;;;;6094049;23;20357;-85
2023/06/16 15:39:27;;;;;;;0.00;0.00;;;33.50;31.80;;;;;;6094867;23;20029;-85
2023/06/16 15:41:54;;;;;;;0.00;0.00;;;33.50;30.50;;;;;;6094255;23;20023;-86
2023/06/16 15:44:21;;;;;;;0.00;0.00;;;33.50;30.90;;;;;;6094508;23;20025;-83
2023/06/16 15:46:48;;;;;;;0.00;0.00;;;33.40;31.20;;;;;;6093888;23;20023;-83
2023/06/16 15:49:15;;;;;;;0.00;0.00;;;33.20;31.90;;;;;;6091275;23;20027;-83
2023/06/16 15:51:42;;;;;;;0.00;0.00;;;33.20;32.40;;;;;;6060971;23;20420;-84
2023/06/16 15:54:11;;;;;;;0.00;0.00;;;33.10;32.20;;;;;;6054541;23;20417;-86
2023/06/16 15:56:39;;;;;;;0.00;0.00;;;33.00;31.30;;;;;;6080167;23;20357;-85
2023/06/16 15:59:08;;;;;;;0.00;0.00;;;32.70;30.50;;;;;;6059912;23;20037;-83
2023/06/16 16:01:38;;;;;;;0.00;0.00;;;32.40;31.70;;;;;;6060709;23;20101;-84
2023/06/16 16:04:06;;;;;;;0.00;0.00;;;32.40;33.40;;;;;;6033894;23;20061;-83
2023/06/16 16:06:33;;;;;;;0.00;0.00;;;32.50;32.60;;;;;;6067794;23;20042;-84
2023/06/16 16:09:01;;;;;;;0.00;0.00;;;32.60;33.10;;;;;;6075913;23;20033;-84
2023/06/16 16:11:28;;;;;;;0.00;0.00;;;32.60;33.80;;;;;;6060171;23;20420;-85
2023/06/16 16:13:55;;;;;;;0.00;0.00;;;32.50;32.50;;;;;;6078110;23;20102;-84
2023/06/16 16:16:22;;;;;;;0.00;0.00;;;32.40;31.80;;;;;;6094183;23;20026;-84
2023/06/16 16:18:49;;;;;;;0.00;0.00;;;32.40;33.20;;;;;;6094185;23;20101;-84
2023/06/16 16:21:16;;;;;;;0.00;0.00;;;32.40;32.30;;;;;;6093850;23;20452;-84
2023/06/16 16:23:43;;;;;;;0.00;0.00;;;32.30;31.70;;;;;;6094217;23;20393;-84
2023/06/16 16:26:10;;;;;;;0.00;0.00;;;32.30;33.60;;;;;;6094944;23;20105;-84
2023/06/16 16:28:37;;;;;;;0.00;0.00;;;32.30;32.90;;;;;;6093219;23;20078;-85
2023/06/16 16:31:04;;;;;;;0.00;0.00;;;32.40;33.60;;;;;;6095738;23;20026;-84
2023/06/16 16:33:31;;;;;;;0.00;0.00;;;32.40;32.90;;;;;;6093512;23;20030;-85
2023/06/16 16:35:58;;;;;;;0.00;0.00;;;32.30;32.70;;;;;;6095806;23;20026;-84
2023/06/16 16:38:25;;;;;;;0.00;0.00;;;32.30;33.00;;;;;;6093695;23;20033;-84
2023/06/16 16:40:52;;;;;;;0.00;0.00;;;32.20;33.00;;;;;;6094534;23;20401;-85
2023/06/16 16:43:18;;;;;;;0.00;0.00;;;32.10;33.40;;;;;;6093100;23;20495;-85